Time;durP1;ratioP1;P1;durP2;ratioP2;P2;SDS_P1;SDS_P2;PMS_P1;PMS_P2;Temp;Humidity;BMP_temperature;BMP_pressure;BME280_temperature;BME280_humidity;BME280_pressure;Samples;Min_cycle;Max_cycle;Signal;HPM_P1;HPM_P2
2022/07/06 00:02:20;;;;;;;3.67;1.93;;;;;;;;;;5048326;28;20209;-48
2022/07/06 00:04:53;;;;;;;3.10;1.97;;;;;;;;;;5048479;28;20181;-50
2022/07/06 00:07:20;;;;;;;2.43;2.00;;;;;;;;;;5046778;28;20172;-49
2022/07/06 00:09:46;;;;;;;4.17;2.23;;;;;;;;;;5048778;28;20169;-49
2022/07/06 00:12:13;;;;;;;2.93;2.10;;;;;;;;;;5067024;28;20549;-54
2022/07/06 00:14:39;;;;;;;3.40;2.00;;;;;;;;;;5054602;28;20193;-49
2022/07/06 00:17:06;;;;;;;2.70;1.80;;;;;;;;;;5046776;28;20173;-49
2022/07/06 00:19:32;;;;;;;2.10;1.90;;;;;;;;;;5029681;28;20268;-49
2022/07/06 00:21:59;;;;;;;1.70;1.60;;;;;;;;;;5065467;28;20677;-49
2022/07/06 00:24:25;;;;;;;1.93;1.83;;;;;;;;;;5067254;28;20177;-48
2022/07/06 00:26:58;;;;;;;2.40;1.70;;;;;;;;;;5047060;28;20217;-49
2022/07/06 00:29:24;;;;;;;2.23;2.07;;;;;;;;;;5068378;28;20303;-48
2022/07/06 00:31:50;;;;;;;2.00;1.80;;;;;;;;;;5066903;28;20176;-48
2022/07/06 00:34:16;;;;;;;2.60;1.90;;;;;;;;;;5066878;28;20180;-48
2022/07/06 00:36:42;;;;;;;3.20;1.77;;;;;;;;;;5047256;28;20665;-49
2022/07/06 00:39:09;;;;;;;2.53;1.87;;;;;;;;;;5066183;28;20574;-49
2022/07/06 00:41:35;;;;;;;1.73;1.63;;;;;;;;;;5065953;28;20232;-48
2022/07/06 00:44:07;;;;;;;2.53;1.87;;;;;;;;;;5049309;28;20161;-49
2022/07/06 00:46:33;;;;;;;2.00;1.87;;;;;;;;;;5048601;28;20511;-49
2022/07/06 00:48:59;;;;;;;1.70;1.60;;;;;;;;;;5049629;28;20199;-49
2022/07/06 00:51:29;;;;;;;2.23;1.90;;;;;;;;;;5065329;28;20257;-48
2022/07/06 00:53:57;;;;;;;2.57;1.90;;;;;;;;;;5047116;28;20184;-48
2022/07/06 00:56:23;;;;;;;2.13;1.83;;;;;;;;;;5066141;28;20169;-47
2022/07/06 00:58:49;;;;;;;4.87;2.17;;;;;;;;;;5066471;28;20168;-48
2022/07/06 01:01:16;;;;;;;1.90;1.80;;;;;;;;;;5066576;28;20679;-48
2022/07/06 01:03:42;;;;;;;2.90;2.03;;;;;;;;;;5066098;28;20199;-48
2022/07/06 01:06:08;;;;;;;2.17;1.80;;;;;;;;;;5065909;28;20161;-48
2022/07/06 01:08:35;;;;;;;4.93;1.97;;;;;;;;;;5064879;28;20222;-48
2022/07/06 01:11:02;;;;;;;3.03;1.93;;;;;;;;;;5047997;28;20788;-47
2022/07/06 01:13:30;;;;;;;1.93;1.83;;;;;;;;;;5065853;28;20165;-48
2022/07/06 01:15:57;;;;;;;2.20;2.00;;;;;;;;;;5047456;28;20188;-49
2022/07/06 01:18:23;;;;;;;3.40;2.00;;;;;;;;;;5064959;28;20244;-49
2022/07/06 01:20:49;;;;;;;1.90;1.80;;;;;;;;;;5066444;28;20255;-49
2022/07/06 01:23:15;;;;;;;3.30;2.00;;;;;;;;;;5030335;28;20172;-49
2022/07/06 01:25:41;;;;;;;2.20;2.10;;;;;;;;;;5048109;27;20242;-49
2022/07/06 01:28:07;;;;;;;3.27;1.93;;;;;;;;;;5065301;28;20153;-48
2022/07/06 01:30:34;;;;;;;2.83;2.23;;;;;;;;;;5046956;28;20219;-49
2022/07/06 01:33:00;;;;;;;2.73;2.03;;;;;;;;;;5065416;28;20531;-48
2022/07/06 01:35:27;;;;;;;3.50;2.20;;;;;;;;;;5065978;28;20665;-49
2022/07/06 01:37:53;;;;;;;3.30;2.10;;;;;;;;;;5046310;28;20839;-49
2022/07/06 01:40:19;;;;;;;2.60;2.10;;;;;;;;;;5065385;28;20227;-49
2022/07/06 01:42:46;;;;;;;2.27;1.83;;;;;;;;;;5047175;28;20346;-49
2022/07/06 01:45:12;;;;;;;3.20;2.20;;;;;;;;;;5047884;28;20227;-55
2022/07/06 01:47:38;;;;;;;3.37;2.00;;;;;;;;;;5047256;28;20185;-49
2022/07/06 01:50:07;;;;;;;2.93;2.27;;;;;;;;;;5065383;28;20614;-49
2022/07/06 01:52:33;;;;;;;2.00;1.87;;;;;;;;;;5045896;28;20575;-49
2022/07/06 01:54:59;;;;;;;2.17;1.90;;;;;;;;;;5066356;28;20611;-49
2022/07/06 01:57:25;;;;;;;2.50;1.93;;;;;;;;;;5066467;28;20199;-49
2022/07/06 01:59:51;;;;;;;2.43;2.23;;;;;;;;;;5066399;28;20171;-49
2022/07/06 02:02:18;;;;;;;4.47;2.20;;;;;;;;;;5048056;28;20191;-48
2022/07/06 02:04:44;;;;;;;2.57;2.33;;;;;;;;;;5066614;28;20175;-48
2022/07/06 02:07:11;;;;;;;4.07;2.40;;;;;;;;;;5047773;28;20214;-47
2022/07/06 02:09:37;;;;;;;3.30;2.20;;;;;;;;;;5066322;28;20165;-49
2022/07/06 02:12:03;;;;;;;1.93;1.83;;;;;;;;;;5065842;28;20200;-48
2022/07/06 02:14:30;;;;;;;3.57;2.27;;;;;;;;;;5057211;28;20369;-48
2022/07/06 02:16:56;;;;;;;2.60;2.30;;;;;;;;;;5048064;28;20731;-48
2022/07/06 02:19:22;;;;;;;2.30;2.10;;;;;;;;;;5066742;28;20256;-48
2022/07/06 02:21:48;;;;;;;2.77;2.57;;;;;;;;;;5065140;28;20216;-48
2022/07/06 02:24:14;;;;;;;2.43;2.23;;;;;;;;;;5066091;28;20165;-48
2022/07/06 02:26:41;;;;;;;2.53;2.33;;;;;;;;;;5063904;28;20586;-48
2022/07/06 02:29:07;;;;;;;2.50;2.23;;;;;;;;;;5085681;28;20152;-48
2022/07/06 02:31:33;;;;;;;2.63;1.90;;;;;;;;;;5089856;28;20654;-53
2022/07/06 02:34:00;;;;;;;3.17;2.20;;;;;;;;;;5071956;28;20176;-53
2022/07/06 02:36:27;;;;;;;3.30;2.30;;;;;;;;;;5074482;28;20188;-48
2022/07/06 02:38:53;;;;;;;3.10;2.10;;;;;;;;;;5051092;28;20169;-49
2022/07/06 02:41:19;;;;;;;2.30;2.20;;;;;;;;;;5065628;28;20218;-49
2022/07/06 02:43:46;;;;;;;2.93;2.40;;;;;;;;;;5089993;28;20156;-48
2022/07/06 02:46:13;;;;;;;2.30;2.00;;;;;;;;;;5058792;28;20176;-47
2022/07/06 02:48:39;;;;;;;4.17;2.40;;;;;;;;;;5069050;28;20497;-48
2022/07/06 02:51:05;;;;;;;2.33;1.87;;;;;;;;;;5063096;28;20666;-48
2022/07/06 02:53:32;;;;;;;2.70;2.00;;;;;;;;;;5056437;28;20559;-48
2022/07/06 02:55:58;;;;;;;3.17;2.10;;;;;;;;;;5080359;28;20176;-48
2022/07/06 02:58:24;;;;;;;3.20;3.00;;;;;;;;;;5070432;28;20630;-48
2022/07/06 03:00:51;;;;;;;2.60;2.10;;;;;;;;;;5089338;28;20282;-48
2022/07/06 03:03:18;;;;;;;3.93;2.40;;;;;;;;;;5070962;28;20258;-48
2022/07/06 03:05:46;;;;;;;3.93;2.53;;;;;;;;;;5061965;28;20188;-48
2022/07/06 03:08:12;;;;;;;3.83;2.10;;;;;;;;;;5068563;28;20172;-47
2022/07/06 03:10:38;;;;;;;3.63;2.07;;;;;;;;;;5069342;28;20234;-47
2022/07/06 03:13:05;;;;;;;2.27;2.07;;;;;;;;;;5069579;28;20603;-48
2022/07/06 03:15:31;;;;;;;1.97;1.80;;;;;;;;;;5058362;28;20179;-48
2022/07/06 03:17:58;;;;;;;2.33;2.10;;;;;;;;;;5089905;28;20681;-48
2022/07/06 03:20:24;;;;;;;3.20;2.30;;;;;;;;;;5064671;28;20559;-51
2022/07/06 03:22:50;;;;;;;2.70;1.90;;;;;;;;;;5067651;28;20164;-49
2022/07/06 03:25:16;;;;;;;3.63;2.53;;;;;;;;;;5069471;28;20569;-48
2022/07/06 03:27:43;;;;;;;2.70;2.40;;;;;;;;;;5052085;28;20220;-48
2022/07/06 03:30:09;;;;;;;2.50;2.30;;;;;;;;;;5068765;28;20636;-48
2022/07/06 03:32:35;;;;;;;2.40;2.20;;;;;;;;;;5068840;28;20157;-47
2022/07/06 03:35:01;;;;;;;2.90;2.10;;;;;;;;;;5054349;28;20197;-48
2022/07/06 03:37:28;;;;;;;3.00;2.13;;;;;;;;;;5069837;28;20222;-47
2022/07/06 03:39:54;;;;;;;1.90;1.80;;;;;;;;;;5053367;28;20569;-48
2022/07/06 03:42:20;;;;;;;2.33;2.10;;;;;;;;;;5088117;28;20199;-47
2022/07/06 03:44:46;;;;;;;2.63;2.43;;;;;;;;;;5088699;28;20550;-47
2022/07/06 03:47:12;;;;;;;3.50;2.70;;;;;;;;;;5070240;28;20554;-47
2022/07/06 03:49:39;;;;;;;3.40;2.13;;;;;;;;;;5070852;28;20168;-47
2022/07/06 03:52:05;;;;;;;5.53;2.40;;;;;;;;;;5049268;28;20206;-47
2022/07/06 03:54:31;;;;;;;2.30;2.10;;;;;;;;;;5050094;28;20194;-47
2022/07/06 03:56:57;;;;;;;2.93;2.73;;;;;;;;;;5087289;28;20195;-47
2022/07/06 03:59:23;;;;;;;2.83;2.13;;;;;;;;;;5088450;28;20175;-47
2022/07/06 04:01:50;;;;;;;2.47;2.10;;;;;;;;;;5051463;28;20208;-48
2022/07/06 04:04:16;;;;;;;2.00;1.90;;;;;;;;;;5068614;28;20172;-52
2022/07/06 04:06:42;;;;;;;2.73;2.47;;;;;;;;;;5065997;28;20218;-48
2022/07/06 04:09:09;;;;;;;4.67;4.27;;;;;;;;;;5087975;28;20179;-47
2022/07/06 04:11:35;;;;;;;4.40;2.30;;;;;;;;;;5087161;28;20649;-48
2022/07/06 04:14:02;;;;;;;3.73;2.40;;;;;;;;;;5057999;28;20189;-48
2022/07/06 04:16:28;;;;;;;2.80;2.20;;;;;;;;;;5043619;28;20639;-48
2022/07/06 04:18:54;;;;;;;2.70;2.50;;;;;;;;;;5067044;28;20176;-47
2022/07/06 04:21:20;;;;;;;4.83;4.50;;;;;;;;;;5067476;28;20208;-47
2022/07/06 04:23:46;;;;;;;3.07;2.10;;;;;;;;;;5048346;28;20643;-47
2022/07/06 04:26:12;;;;;;;2.23;2.03;;;;;;;;;;5062208;28;20231;-48
2022/07/06 04:28:39;;;;;;;3.40;2.50;;;;;;;;;;5071552;28;20196;-49
2022/07/06 04:31:05;;;;;;;3.63;3.33;;;;;;;;;;5047767;28;20181;-48
2022/07/06 04:33:31;;;;;;;2.30;2.10;;;;;;;;;;5047966;28;20179;-48
2022/07/06 04:35:57;;;;;;;2.77;2.43;;;;;;;;;;5066906;28;20188;-48
2022/07/06 04:38:23;;;;;;;2.43;2.23;;;;;;;;;;5066250;28;20164;-48
2022/07/06 04:40:49;;;;;;;3.10;2.33;;;;;;;;;;5067194;28;20609;-48
2022/07/06 04:43:16;;;;;;;4.27;2.60;;;;;;;;;;5067123;28;20157;-48
2022/07/06 04:45:42;;;;;;;2.57;2.37;;;;;;;;;;5056887;28;20530;-48
2022/07/06 04:48:08;;;;;;;2.60;2.40;;;;;;;;;;5068505;28;20837;-52
2022/07/06 04:50:35;;;;;;;3.07;2.73;;;;;;;;;;5060835;28;20211;-48
2022/07/06 04:53:01;;;;;;;3.77;2.20;;;;;;;;;;5047485;28;20271;-49
2022/07/06 04:55:27;;;;;;;2.37;2.17;;;;;;;;;;5067048;28;20647;-47
2022/07/06 04:57:53;;;;;;;2.93;2.23;;;;;;;;;;5048422;28;20173;-47
2022/07/06 05:00:20;;;;;;;3.77;3.17;;;;;;;;;;5066425;28;20180;-47
2022/07/06 05:02:46;;;;;;;2.67;2.47;;;;;;;;;;5085990;28;20551;-46
2022/07/06 05:05:13;;;;;;;2.70;2.40;;;;;;;;;;5063082;28;20185;-46
2022/07/06 05:07:39;;;;;;;3.17;2.50;;;;;;;;;;5047355;28;20173;-47
2022/07/06 05:10:14;;;;;;;3.50;2.57;;;;;;;;;;5066458;28;20267;-47
2022/07/06 05:12:47;;;;;;;3.17;2.40;;;;;;;;;;5047478;28;20184;-48
2022/07/06 05:15:13;;;;;;;2.93;2.73;;;;;;;;;;5066315;28;20184;-48
2022/07/06 05:17:39;;;;;;;3.93;2.10;;;;;;;;;;5066411;28;20168;-48
2022/07/06 05:20:06;;;;;;;2.53;2.33;;;;;;;;;;5048398;28;20275;-47
2022/07/06 05:22:32;;;;;;;2.47;2.23;;;;;;;;;;5063686;28;20710;-48
2022/07/06 05:25:06;;;;;;;3.63;2.73;;;;;;;;;;5086382;28;20220;-47
2022/07/06 05:27:40;;;;;;;3.47;2.70;;;;;;;;;;5068912;28;20219;-47
2022/07/06 05:30:07;;;;;;;4.03;2.83;;;;;;;;;;5086139;28;20180;-47
2022/07/06 05:32:35;;;;;;;3.20;2.90;;;;;;;;;;5068835;28;20511;-47
2022/07/06 05:35:01;;;;;;;2.63;2.30;;;;;;;;;;5085523;28;20180;-47
2022/07/06 05:37:28;;;;;;;4.63;2.40;;;;;;;;;;5066815;28;20179;-47
2022/07/06 05:39:54;;;;;;;3.00;2.50;;;;;;;;;;5067871;28;20183;-47
2022/07/06 05:42:21;;;;;;;2.30;1.90;;;;;;;;;;5068073;28;20618;-47
2022/07/06 05:44:47;;;;;;;4.20;2.50;;;;;;;;;;5086074;28;20156;-47
2022/07/06 05:50:14;;;;;;;3.53;2.63;;;;;;;;;;5085464;28;20162;-52
2022/07/06 05:52:44;;;;;;;5.77;2.90;;;;;;;;;;5084340;28;20212;-46
2022/07/06 05:55:11;;;;;;;4.70;2.77;;;;;;;;;;5063310;28;20562;-54
2022/07/06 05:57:37;;;;;;;4.20;2.43;;;;;;;;;;5065580;28;20227;-47
2022/07/06 06:00:05;;;;;;;2.57;2.30;;;;;;;;;;5065812;28;20287;-46
2022/07/06 06:02:38;;;;;;;3.93;2.50;;;;;;;;;;5046886;28;20674;-47
2022/07/06 06:05:06;;;;;;;2.57;2.37;;;;;;;;;;5048510;28;20203;-47
2022/07/06 06:07:33;;;;;;;5.20;2.30;;;;;;;;;;5066854;28;20164;-47
2022/07/06 06:09:59;;;;;;;3.40;2.47;;;;;;;;;;5051224;28;20187;-46
2022/07/06 06:12:26;;;;;;;2.77;2.57;;;;;;;;;;5051776;28;20260;-46
2022/07/06 06:14:52;;;;;;;2.97;2.50;;;;;;;;;;5052156;28;20583;-46
2022/07/06 06:17:19;;;;;;;3.03;2.40;;;;;;;;;;5051480;28;20841;-47
2022/07/06 06:19:45;;;;;;;2.33;2.13;;;;;;;;;;5052023;28;20168;-46
2022/07/06 06:22:12;;;;;;;3.07;2.40;;;;;;;;;;5068886;28;20235;-47
2022/07/06 06:24:38;;;;;;;2.33;2.13;;;;;;;;;;5051951;28;20592;-47
2022/07/06 06:27:11;;;;;;;3.57;2.20;;;;;;;;;;5062570;27;20563;-47
2022/07/06 06:29:38;;;;;;;2.87;2.60;;;;;;;;;;5049825;28;20184;-47
2022/07/06 06:32:05;;;;;;;4.83;2.40;;;;;;;;;;5049438;28;20212;-47
2022/07/06 06:34:31;;;;;;;3.10;2.30;;;;;;;;;;5050216;28;20166;-47
2022/07/06 06:36:58;;;;;;;2.47;2.27;;;;;;;;;;5030637;28;20185;-48
2022/07/06 06:39:24;;;;;;;2.17;1.97;;;;;;;;;;5049408;28;20189;-47
2022/07/06 06:41:50;;;;;;;2.33;2.00;;;;;;;;;;5049197;28;20674;-46
2022/07/06 06:44:17;;;;;;;2.20;2.00;;;;;;;;;;5049828;28;20161;-53
2022/07/06 06:46:43;;;;;;;5.30;2.03;;;;;;;;;;5031507;28;20616;-47
2022/07/06 06:49:10;;;;;;;2.63;1.83;;;;;;;;;;5049814;28;20169;-47
2022/07/06 06:51:38;;;;;;;3.37;2.00;;;;;;;;;;5030646;28;20205;-48
2022/07/06 06:54:04;;;;;;;3.37;2.20;;;;;;;;;;5048996;28;20162;-48
2022/07/06 06:56:30;;;;;;;3.20;1.80;;;;;;;;;;5049682;28;20231;-47
2022/07/06 06:58:57;;;;;;;3.40;1.97;;;;;;;;;;5049183;28;20533;-48
2022/07/06 07:01:23;;;;;;;2.73;1.90;;;;;;;;;;5031343;28;20287;-47
2022/07/06 07:03:51;;;;;;;2.97;1.93;;;;;;;;;;5049400;28;20575;-48
2022/07/06 07:06:18;;;;;;;3.77;2.20;;;;;;;;;;5031102;28;20221;-48
2022/07/06 07:08:44;;;;;;;2.40;2.27;;;;;;;;;;5048339;28;20228;-50
2022/07/06 07:11:10;;;;;;;40.57;4.37;;;;;;;;;;5048776;28;20239;-48
2022/07/06 07:13:36;;;;;;;19.67;3.50;;;;;;;;;;5031205;28;20460;-48
2022/07/06 07:16:02;;;;;;;16.13;3.67;;;;;;;;;;5029822;28;20239;-48
2022/07/06 07:18:29;;;;;;;15.17;3.87;;;;;;;;;;5013873;28;20561;-48
2022/07/06 07:20:55;;;;;;;5.07;2.37;;;;;;;;;;5030743;28;20208;-49
2022/07/06 07:23:21;;;;;;;9.90;2.60;;;;;;;;;;5047960;28;20161;-49
2022/07/06 07:25:47;;;;;;;9.20;2.77;;;;;;;;;;5047449;28;20188;-47
2022/07/06 07:28:14;;;;;;;8.07;2.40;;;;;;;;;;5049712;27;20220;-49
2022/07/06 07:30:40;;;;;;;5.63;2.10;;;;;;;;;;5068685;28;20201;-54
2022/07/06 07:33:06;;;;;;;6.63;1.87;;;;;;;;;;5068267;28;20153;-48
2022/07/06 07:35:32;;;;;;;3.80;1.90;;;;;;;;;;5068839;28;20473;-49
2022/07/06 07:37:58;;;;;;;10.97;2.00;;;;;;;;;;5048899;28;20165;-49
2022/07/06 07:40:24;;;;;;;7.67;3.47;;;;;;;;;;5068551;28;20169;-48
2022/07/06 07:42:50;;;;;;;6.53;2.33;;;;;;;;;;5050740;28;20757;-49
2022/07/06 07:45:17;;;;;;;5.50;2.67;;;;;;;;;;5068241;28;20729;-49
2022/07/06 07:47:43;;;;;;;4.17;1.80;;;;;;;;;;5050501;28;20176;-49
2022/07/06 07:50:09;;;;;;;6.43;2.97;;;;;;;;;;5049589;28;20752;-48
2022/07/06 07:52:36;;;;;;;6.10;2.03;;;;;;;;;;5067190;28;20669;-48
2022/07/06 07:55:02;;;;;;;3.40;1.90;;;;;;;;;;5049180;28;20588;-48
2022/07/06 07:57:28;;;;;;;2.50;1.60;;;;;;;;;;5067496;28;20166;-48
2022/07/06 07:59:54;;;;;;;4.77;2.20;;;;;;;;;;5067643;28;20161;-49
2022/07/06 08:02:20;;;;;;;2.43;1.60;;;;;;;;;;5067675;28;20205;-48
2022/07/06 08:04:46;;;;;;;3.13;1.70;;;;;;;;;;5049201;28;20670;-48
2022/07/06 08:07:13;;;;;;;1.60;1.30;;;;;;;;;;5066943;28;20192;-48
2022/07/06 08:09:39;;;;;;;2.40;1.60;;;;;;;;;;5068090;28;20214;-48
2022/07/06 08:12:05;;;;;;;2.87;1.77;;;;;;;;;;5067481;28;20165;-48
2022/07/06 08:14:31;;;;;;;2.20;1.50;;;;;;;;;;5067258;28;20574;-48
2022/07/06 08:16:58;;;;;;;2.40;1.67;;;;;;;;;;5065923;28;20184;-48
2022/07/06 08:19:24;;;;;;;2.37;1.30;;;;;;;;;;5048670;28;20211;-46
2022/07/06 08:21:50;;;;;;;2.37;1.53;;;;;;;;;;5064680;28;20218;-48
2022/07/06 08:24:16;;;;;;;1.77;1.67;;;;;;;;;;5066191;28;20247;-48
2022/07/06 08:26:42;;;;;;;3.13;1.90;;;;;;;;;;5067484;27;20211;-49
2022/07/06 08:29:09;;;;;;;1.90;1.53;;;;;;;;;;5047730;28;20693;-49
2022/07/06 08:31:35;;;;;;;1.70;1.60;;;;;;;;;;5047886;28;20217;-48
2022/07/06 08:34:01;;;;;;;1.37;1.27;;;;;;;;;;5049590;28;20445;-49
2022/07/06 08:36:28;;;;;;;2.47;1.80;;;;;;;;;;5059579;28;20192;-49
2022/07/06 08:38:54;;;;;;;3.23;1.50;;;;;;;;;;5065761;28;20190;-49
2022/07/06 08:41:22;;;;;;;3.90;1.50;;;;;;;;;;5049218;28;20216;-48
2022/07/06 08:43:48;;;;;;;1.97;1.37;;;;;;;;;;5048996;28;20165;-48
2022/07/06 08:46:15;;;;;;;2.70;1.57;;;;;;;;;;5058400;28;20480;-48
2022/07/06 08:48:41;;;;;;;1.87;1.43;;;;;;;;;;5066086;28;20227;-48
2022/07/06 08:51:07;;;;;;;1.43;1.33;;;;;;;;;;5057191;28;20357;-48
2022/07/06 08:53:34;;;;;;;2.63;1.73;;;;;;;;;;5065892;28;20532;-49
2022/07/06 08:56:01;;;;;;;2.40;1.70;;;;;;;;;;5067190;28;20192;-59
2022/07/06 08:58:27;;;;;;;3.13;1.50;;;;;;;;;;5067083;28;20168;-49
2022/07/06 09:00:55;;;;;;;2.93;1.30;;;;;;;;;;5066394;28;20184;-48
2022/07/06 09:03:21;;;;;;;2.07;1.50;;;;;;;;;;5067351;28;20157;-48
2022/07/06 09:05:47;;;;;;;1.43;1.33;;;;;;;;;;5057083;28;20195;-49
2022/07/06 09:08:14;;;;;;;1.77;1.60;;;;;;;;;;5067645;28;20305;-49
2022/07/06 09:10:40;;;;;;;1.97;1.20;;;;;;;;;;5040762;28;20191;-48
2022/07/06 09:13:08;;;;;;;1.70;1.60;;;;;;;;;;5028660;28;20253;-48
2022/07/06 09:15:35;;;;;;;2.80;1.73;;;;;;;;;;5042530;28;20187;-48
2022/07/06 09:18:02;;;;;;;2.70;1.73;;;;;;;;;;5086534;28;20148;-48
2022/07/06 09:20:28;;;;;;;2.50;1.40;;;;;;;;;;5081161;28;20435;-49
2022/07/06 09:22:59;;;;;;;1.93;1.40;;;;;;;;;;5065261;28;20195;-48
2022/07/06 09:25:26;;;;;;;1.30;1.20;;;;;;;;;;5067040;28;20200;-49
2022/07/06 09:27:54;;;;;;;2.50;1.50;;;;;;;;;;5077468;28;20655;-48
2022/07/06 09:30:21;;;;;;;1.23;1.23;;;;;;;;;;5066301;28;20172;-48
2022/07/06 09:32:49;;;;;;;2.67;1.50;;;;;;;;;;5066698;28;20156;-49
2022/07/06 09:35:21;;;;;;;2.63;1.50;;;;;;;;;;5048487;28;20580;-48
2022/07/06 09:37:47;;;;;;;1.60;1.50;;;;;;;;;;5062275;28;20619;-48
2022/07/06 09:40:18;;;;;;;1.40;1.30;;;;;;;;;;5054247;28;20652;-48
2022/07/06 09:42:44;;;;;;;1.70;1.60;;;;;;;;;;5086343;28;20203;-49
2022/07/06 09:45:10;;;;;;;1.37;1.27;;;;;;;;;;5048120;28;20180;-53
2022/07/06 09:47:37;;;;;;;1.60;1.30;;;;;;;;;;5066180;28;20993;-49
2022/07/06 09:50:07;;;;;;;1.77;1.50;;;;;;;;;;5048146;28;20427;-48
2022/07/06 09:52:37;;;;;;;1.50;1.40;;;;;;;;;;5047303;28;20179;-48
2022/07/06 09:55:06;;;;;;;1.63;1.53;;;;;;;;;;5066743;28;20848;-48
2022/07/06 09:57:33;;;;;;;1.40;1.30;;;;;;;;;;5066734;28;20172;-48
2022/07/06 09:59:59;;;;;;;1.40;1.30;;;;;;;;;;5066359;28;20259;-48
2022/07/06 10:02:26;;;;;;;1.87;1.40;;;;;;;;;;5065659;28;20204;-49
2022/07/06 10:04:53;;;;;;;2.07;1.90;;;;;;;;;;5047761;28;20746;-49
2022/07/06 10:07:21;;;;;;;2.63;1.30;;;;;;;;;;5065093;28;20640;-49
2022/07/06 10:09:48;;;;;;;1.13;1.13;;;;;;;;;;5031539;28;20651;-49
2022/07/06 10:12:16;;;;;;;3.37;1.50;;;;;;;;;;5047725;28;20181;-49
2022/07/06 10:14:43;;;;;;;1.37;1.27;;;;;;;;;;5066678;28;20159;-49
2022/07/06 10:17:09;;;;;;;2.30;1.60;;;;;;;;;;5047677;28;20185;-49
2022/07/06 10:19:36;;;;;;;2.73;1.60;;;;;;;;;;5048161;28;20189;-48
2022/07/06 10:22:03;;;;;;;1.60;1.50;;;;;;;;;;5064248;28;20199;-49
2022/07/06 10:24:30;;;;;;;1.30;1.20;;;;;;;;;;5065612;28;20177;-49
2022/07/06 10:26:56;;;;;;;1.87;1.77;;;;;;;;;;5065809;28;20211;-50
2022/07/06 10:29:24;;;;;;;1.73;1.30;;;;;;;;;;5051672;28;20391;-49
2022/07/06 10:31:51;;;;;;;2.00;1.40;;;;;;;;;;5049964;28;20189;-49
2022/07/06 10:34:19;;;;;;;1.20;1.20;;;;;;;;;;5066036;28;20631;-61
2022/07/06 10:36:48;;;;;;;2.10;1.30;;;;;;;;;;5064790;28;20202;-49
2022/07/06 10:41:59;;;;;;;1.70;1.60;;;;;;;;;;5064751;28;20213;-49
2022/07/06 10:44:27;;;;;;;2.07;1.33;;;;;;;;;;5065913;28;20571;-49
2022/07/06 10:46:59;;;;;;;1.50;1.30;;;;;;;;;;5065178;28;20175;-49
2022/07/06 10:49:26;;;;;;;1.67;1.30;;;;;;;;;;5066405;28;20161;-49
2022/07/06 10:51:52;;;;;;;1.63;1.53;;;;;;;;;;5084787;28;20223;-49
2022/07/06 10:54:20;;;;;;;2.13;1.60;;;;;;;;;;5089293;28;20164;-49
2022/07/06 10:56:47;;;;;;;3.20;1.60;;;;;;;;;;5089062;28;20199;-49
2022/07/06 10:59:14;;;;;;;2.87;1.57;;;;;;;;;;5089330;28;20156;-49
2022/07/06 11:01:43;;;;;;;3.10;1.80;;;;;;;;;;5089066;28;20208;-49
2022/07/06 11:04:10;;;;;;;1.90;1.80;;;;;;;;;;5074853;28;20514;-50
2022/07/06 11:06:38;;;;;;;1.53;1.30;;;;;;;;;;5068702;28;20580;-49
2022/07/06 11:09:05;;;;;;;2.07;1.60;;;;;;;;;;5034328;28;20184;-49
2022/07/06 11:11:31;;;;;;;1.83;1.63;;;;;;;;;;5068911;28;20172;-49
2022/07/06 11:14:13;;;;;;;1.70;1.50;;;;;;;;;;5050598;28;20180;-50
2022/07/06 11:16:41;;;;;;;1.83;1.40;;;;;;;;;;5069019;28;20189;-50
2022/07/06 11:19:09;;;;;;;1.57;1.47;;;;;;;;;;5050879;28;20185;-49
2022/07/06 11:21:38;;;;;;;2.80;1.60;;;;;;;;;;5064997;28;20204;-49
2022/07/06 11:24:09;;;;;;;1.60;1.50;;;;;;;;;;5088470;28;20225;-50
2022/07/06 11:26:43;;;;;;;1.93;1.57;;;;;;;;;;5088852;27;20179;-50
2022/07/06 11:29:10;;;;;;;2.37;1.70;;;;;;;;;;5068985;28;20600;-50
2022/07/06 11:31:41;;;;;;;1.50;1.40;;;;;;;;;;5052738;28;20189;-50
2022/07/06 11:34:08;;;;;;;1.60;1.50;;;;;;;;;;5048811;28;20678;-50
2022/07/06 11:36:34;;;;;;;1.70;1.60;;;;;;;;;;5013217;28;20173;-50
2022/07/06 11:39:01;;;;;;;1.93;1.53;;;;;;;;;;5047544;28;20200;-56
2022/07/06 11:41:27;;;;;;;2.70;1.50;;;;;;;;;;5048128;28;20372;-51
2022/07/06 11:43:54;;;;;;;3.33;1.87;;;;;;;;;;5048902;28;20632;-51
2022/07/06 11:46:23;;;;;;;1.83;1.73;;;;;;;;;;5029964;28;20410;-49
2022/07/06 11:48:50;;;;;;;1.77;1.50;;;;;;;;;;5030226;28;20183;-52
2022/07/06 11:51:17;;;;;;;1.87;1.77;;;;;;;;;;5048243;28;20733;-50
2022/07/06 11:53:46;;;;;;;2.30;1.50;;;;;;;;;;5047553;28;20522;-51
2022/07/06 11:56:13;;;;;;;1.63;1.53;;;;;;;;;;5030096;28;20223;-51
2022/07/06 11:58:46;;;;;;;2.93;1.40;;;;;;;;;;5048665;28;20887;-51
2022/07/06 12:01:14;;;;;;;3.77;3.30;;;;;;;;;;5047966;28;20218;-51
2022/07/06 12:03:41;;;;;;;1.90;1.60;;;;;;;;;;5047383;28;20303;-51
2022/07/06 12:06:13;;;;;;;1.30;1.30;;;;;;;;;;5029855;28;20293;-51
2022/07/06 12:08:50;;;;;;;4.17;1.70;;;;;;;;;;5046342;28;20612;-51
2022/07/06 12:11:24;;;;;;;1.73;1.47;;;;;;;;;;5047637;28;20574;-51
2022/07/06 12:13:51;;;;;;;1.60;1.47;;;;;;;;;;5029207;28;20256;-51
2022/07/06 12:16:17;;;;;;;1.57;1.37;;;;;;;;;;5044544;28;20255;-50
2022/07/06 12:18:44;;;;;;;1.50;1.40;;;;;;;;;;5026723;28;20523;-51
2022/07/06 12:21:13;;;;;;;4.23;2.60;;;;;;;;;;5039227;28;20208;-51
2022/07/06 12:23:40;;;;;;;2.50;1.53;;;;;;;;;;5027688;28;20528;-51
2022/07/06 12:26:06;;;;;;;1.33;1.23;;;;;;;;;;5058160;28;20248;-50
2022/07/06 12:28:32;;;;;;;2.70;1.30;;;;;;;;;;5082652;28;20222;-52
2022/07/06 12:30:59;;;;;;;3.07;1.77;;;;;;;;;;5086754;28;20690;-51
2022/07/06 12:33:27;;;;;;;2.57;1.90;;;;;;;;;;5069273;28;20169;-54
2022/07/06 12:35:54;;;;;;;1.50;1.40;;;;;;;;;;5058206;28;20175;-51
2022/07/06 12:38:27;;;;;;;3.03;1.40;;;;;;;;;;5065203;28;20177;-51
2022/07/06 12:40:53;;;;;;;1.67;1.33;;;;;;;;;;5066954;28;20533;-50
2022/07/06 12:43:42;;;;;;;2.37;1.50;;;;;;;;;;5048388;28;20225;-51
2022/07/06 12:46:44;;;;;;;2.80;1.60;;;;;;;;;;5066265;28;20639;-51
2022/07/06 12:49:23;;;;;;;3.37;1.80;;;;;;;;;;4965364;28;20626;-51
2022/07/06 12:51:57;;;;;;;1.93;1.50;;;;;;;;;;5053686;28;20207;-51
2022/07/06 12:54:24;;;;;;;1.60;1.50;;;;;;;;;;5067795;28;20172;-52
2022/07/06 12:57:00;;;;;;;3.87;1.60;;;;;;;;;;5086195;28;20279;-51
2022/07/06 12:59:29;;;;;;;1.93;1.73;;;;;;;;;;5087094;28;20152;-51
2022/07/06 13:01:58;;;;;;;1.40;1.30;;;;;;;;;;5033937;28;20204;-52
2022/07/06 13:04:26;;;;;;;1.83;1.33;;;;;;;;;;5066707;28;20172;-51
2022/07/06 13:06:52;;;;;;;2.53;1.38;;;;;;;;;;5064848;28;20651;-51
2022/07/06 13:09:18;;;;;;;5.03;1.73;;;;;;;;;;5066218;28;20265;-49
2022/07/06 13:11:46;;;;;;;1.70;1.57;;;;;;;;;;5066759;28;20188;-51
2022/07/06 13:14:13;;;;;;;1.90;1.33;;;;;;;;;;5065527;28;20173;-51
2022/07/06 13:16:39;;;;;;;1.60;1.50;;;;;;;;;;5067264;28;20256;-50
2022/07/06 13:19:05;;;;;;;2.47;1.50;;;;;;;;;;5066904;28;20650;-51
2022/07/06 13:21:31;;;;;;;1.43;1.33;;;;;;;;;;5065979;28;20296;-51
2022/07/06 13:23:57;;;;;;;1.37;1.37;;;;;;;;;;5065724;28;20165;-50
2022/07/06 13:26:24;;;;;;;2.70;1.70;;;;;;;;;;5067045;28;20165;-50
2022/07/06 13:28:50;;;;;;;3.70;1.70;;;;;;;;;;5049772;28;20213;-51
2022/07/06 13:31:16;;;;;;;1.40;1.30;;;;;;;;;;5066656;28;20204;-50
2022/07/06 13:33:42;;;;;;;1.73;1.53;;;;;;;;;;5066874;28;20384;-50
2022/07/06 13:36:08;;;;;;;2.67;1.80;;;;;;;;;;5066479;28;20199;-49
2022/07/06 13:38:35;;;;;;;1.50;1.40;;;;;;;;;;5046676;28;20183;-50
2022/07/06 13:41:01;;;;;;;1.80;1.33;;;;;;;;;;5076326;28;20281;-50
2022/07/06 13:43:35;;;;;;;1.60;1.50;;;;;;;;;;5086790;28;20152;-50
2022/07/06 13:46:05;;;;;;;2.00;1.30;;;;;;;;;;5057309;28;20222;-50
2022/07/06 13:48:32;;;;;;;1.67;1.53;;;;;;;;;;5048023;28;20216;-50
2022/07/06 13:50:59;;;;;;;2.77;1.50;;;;;;;;;;5065838;28;20211;-50
2022/07/06 13:53:25;;;;;;;2.30;1.40;;;;;;;;;;5065368;28;20165;-52
2022/07/06 13:55:52;;;;;;;2.60;1.90;;;;;;;;;;5066327;28;20165;-51
2022/07/06 13:58:18;;;;;;;2.80;1.50;;;;;;;;;;5065703;28;20181;-51
2022/07/06 14:00:44;;;;;;;1.60;1.50;;;;;;;;;;5066407;28;20180;-49
2022/07/06 14:03:11;;;;;;;2.70;2.43;;;;;;;;;;5065902;28;20192;-50
2022/07/06 14:05:37;;;;;;;2.53;1.50;;;;;;;;;;5066281;28;20608;-50
2022/07/06 14:08:03;;;;;;;1.63;1.43;;;;;;;;;;5064990;28;20223;-50
2022/07/06 14:10:30;;;;;;;1.63;1.50;;;;;;;;;;5066003;28;20615;-50
2022/07/06 14:12:56;;;;;;;1.70;1.60;;;;;;;;;;5047977;28;20176;-50
2022/07/06 14:15:22;;;;;;;1.97;1.43;;;;;;;;;;5053114;28;20184;-49
2022/07/06 14:17:48;;;;;;;2.10;1.47;;;;;;;;;;5070474;28;20204;-50
2022/07/06 14:20:15;;;;;;;4.50;3.10;;;;;;;;;;5065588;28;20689;-51
2022/07/06 14:22:41;;;;;;;3.47;1.60;;;;;;;;;;5064848;28;20195;-50
2022/07/06 14:25:12;;;;;;;1.60;1.50;;;;;;;;;;5066143;28;20192;-50
2022/07/06 14:27:40;;;;;;;3.00;1.40;;;;;;;;;;5053249;28;20220;-49
2022/07/06 14:30:06;;;;;;;3.77;1.50;;;;;;;;;;5069664;28;20684;-50
2022/07/06 14:32:33;;;;;;;4.77;1.50;;;;;;;;;;5069534;28;20177;-50
2022/07/06 14:34:59;;;;;;;1.50;1.40;;;;;;;;;;5069864;28;20651;-58
2022/07/06 14:37:25;;;;;;;4.13;2.47;;;;;;;;;;5068484;28;20692;-51
2022/07/06 14:39:51;;;;;;;3.07;1.20;;;;;;;;;;5069501;28;20615;-50
2022/07/06 14:42:18;;;;;;;3.67;1.60;;;;;;;;;;5069723;28;20208;-52
2022/07/06 14:44:44;;;;;;;1.57;1.30;;;;;;;;;;5051631;28;20168;-51
2022/07/06 14:47:10;;;;;;;1.50;1.40;;;;;;;;;;5071811;28;20176;-50
2022/07/06 14:49:37;;;;;;;4.70;1.50;;;;;;;;;;5089553;28;20153;-52